Terminal Aerodrome Forecast
Issued by NWS Wakefield, VA

Home | Current Version | Previous Version | Text Only | Print | Product List | Glossary On
Versions: 1 2 3 4 5 6 7 8 9 10 11 12 13 14 15 16 17 18 19 20 21 22 23 24 25
000
FTUS41 KAKQ 051700 RRA
TAFECG
TAF
KECG 051744Z 0518/0618 02015G23KT 3SM -RA BR OVC007
     FM052200 36022G31KT 2SM -PLRA OVC005
     FM060000 36022G30KT 1SM -PL OVC005
     FM060600 36023G33KT P6SM BKN020
     FM061200 35018G25KT P6SM SCT030=

USA.gov is the U.S. government's official web portal to all federal, state and local government web resources and services.